createdAt,value
2018-10-02T04:32:17.683Z,3.50
2018-10-02T04:34:45.831Z,3.40
2018-10-02T04:37:13.900Z,3.40
2018-10-02T04:39:42.074Z,3.40
2018-10-02T04:42:10.147Z,3.30
2018-10-02T04:44:38.243Z,3.50
2018-10-02T04:47:06.341Z,3.40
2018-10-02T04:49:34.417Z,3.60
2018-10-02T04:52:02.500Z,3.60
2018-10-02T04:54:30.580Z,3.50
2018-10-02T04:56:58.656Z,3.50
2018-10-02T04:59:26.733Z,3.50
2018-10-02T05:01:54.829Z,3.50
2018-10-02T05:04:22.893Z,3.50
2018-10-02T05:06:50.520Z,3.50
2018-10-02T05:09:18.620Z,3.40
2018-10-02T05:11:46.720Z,3.50
2018-10-02T05:14:14.823Z,3.50
2018-10-02T05:16:42.972Z,3.50
2018-10-02T05:19:11.047Z,3.50
2018-10-02T05:21:39.160Z,3.40
2018-10-02T05:24:07.366Z,3.60
2018-10-02T05:29:03.409Z,3.60
2018-10-02T05:31:31.492Z,3.70
2018-10-02T05:33:59.569Z,3.70
2018-10-02T05:36:27.713Z,3.70
2018-10-02T05:38:55.832Z,3.70
2018-10-02T05:41:23.915Z,3.80
2018-10-02T05:43:52.021Z,3.80
2018-10-02T05:46:20.120Z,3.80
2018-10-02T05:48:48.339Z,3.80
2018-10-02T05:51:16.424Z,3.90
2018-10-02T05:53:44.540Z,3.90
2018-10-02T05:56:12.612Z,4.00
2018-10-02T05:58:40.691Z,4.10
2018-10-02T06:01:09.069Z,4.10
2018-10-02T06:03:37.194Z,4.20
2018-10-02T06:06:04.779Z,4.20
2018-10-02T06:08:32.870Z,4.20
2018-10-02T06:11:00.944Z,4.20
2018-10-02T06:13:29.054Z,4.20
2018-10-02T06:15:57.168Z,4.20
2018-10-02T06:18:25.259Z,4.20
2018-10-02T06:20:53.435Z,4.30
2018-10-02T06:23:21.505Z,4.30
2018-10-02T06:25:49.584Z,4.40
2018-10-02T06:28:17.692Z,4.50
2018-10-02T06:30:45.770Z,4.70
2018-10-02T06:33:13.863Z,4.90
2018-10-02T06:35:41.945Z,5.10
2018-10-02T06:38:10.058Z,5.40
2018-10-02T06:40:38.127Z,5.60
2018-10-02T06:43:06.425Z,5.70
2018-10-02T15:02:53.354Z,9.40
2018-10-02T15:05:21.440Z,9.60
2018-10-02T15:07:49.524Z,9.50
2018-10-02T15:10:28.712Z,9.50
2018-10-02T15:12:56.829Z,9.50
2018-10-02T15:15:24.916Z,9.60
2018-10-02T15:17:54.029Z,9.70
2018-10-02T15:20:22.992Z,9.70
2018-10-02T15:22:51.253Z,9.70
2018-10-02T15:25:19.396Z,9.70
2018-10-02T15:27:47.536Z,9.70
2018-10-02T15:30:15.613Z,9.80
2018-10-02T15:32:43.720Z,9.80
2018-10-02T15:35:11.844Z,9.80
2018-10-02T15:37:39.981Z,9.90
2018-10-02T15:40:08.081Z,9.90
2018-10-02T15:42:36.307Z,9.90
2018-10-02T15:45:04.692Z,10.00
2018-10-02T15:47:32.787Z,10.00
2018-10-02T15:50:00.889Z,10.00
2018-10-02T15:52:28.997Z,10.00
2018-10-02T15:54:57.280Z,10.00
2018-10-02T15:57:25.555Z,10.00
2018-10-02T15:59:53.723Z,10.00
2018-10-02T16:02:21.918Z,10.00
2018-10-02T16:04:49.561Z,10.10
2018-10-02T16:07:17.652Z,10.00
2018-10-02T16:09:45.307Z,10.10
2018-10-02T16:12:13.412Z,10.10
2018-10-02T16:14:41.516Z,10.10
2018-10-02T16:17:09.624Z,10.10
2018-10-02T16:19:37.712Z,10.10
2018-10-02T16:22:05.898Z,10.10
2018-10-02T16:24:34.007Z,10.10
2018-10-02T16:27:02.333Z,10.10
2018-10-02T16:29:30.420Z,10.20
2018-10-02T16:31:58.584Z,10.10
2018-10-02T16:34:26.701Z,10.10
2018-10-02T16:36:55.013Z,10.10
2018-10-02T16:39:23.204Z,10.20
2018-10-02T16:41:51.443Z,10.20
2018-10-02T16:44:19.559Z,10.10
2018-10-02T16:46:47.653Z,10.10
2018-10-02T16:49:15.788Z,10.10
2018-10-02T16:51:44.480Z,10.10
2018-10-02T16:54:12.591Z,10.10
2018-10-02T16:56:40.690Z,10.10
2018-10-02T16:59:09.016Z,10.10
2018-10-02T17:01:37.147Z,10.10
2018-10-02T17:04:05.367Z,10.10
2018-10-02T17:06:33.619Z,10.10
2018-10-02T17:09:02.387Z,10.10
2018-10-02T17:11:30.541Z,10.00
2018-10-02T17:13:58.628Z,10.10
2018-10-02T17:16:26.816Z,10.10
2018-10-02T17:18:54.908Z,10.00
2018-10-02T17:21:22.993Z,10.10
2018-10-02T17:23:51.089Z,10.10
2018-10-02T17:26:19.180Z,10.00
2018-10-02T17:28:47.278Z,10.00
2018-10-02T17:31:15.365Z,10.10
2018-10-02T17:33:43.664Z,10.10
2018-10-02T17:36:11.754Z,10.10
2018-10-02T17:38:39.860Z,10.10
2018-10-02T17:41:09.085Z,10.10
2018-10-02T17:43:37.426Z,10.10
2018-10-02T17:46:05.530Z,10.10
2018-10-02T17:48:33.617Z,10.10
2018-10-02T17:51:01.804Z,10.10
2018-10-02T17:53:29.924Z,10.10
2018-10-02T17:55:58.025Z,10.10
2018-10-02T17:58:26.140Z,10.10
2018-10-02T18:00:54.246Z,10.00
2018-10-02T18:03:22.336Z,10.00
2018-10-02T18:05:50.484Z,10.10
2018-10-02T18:08:18.580Z,10.10
2018-10-02T18:10:46.216Z,10.00
2018-10-02T18:13:14.313Z,10.00
2018-10-02T18:15:42.413Z,10.00
2018-10-02T18:18:10.516Z,10.00
2018-10-02T18:20:38.609Z,10.00
2018-10-02T18:23:06.700Z,10.00
2018-10-02T18:25:34.809Z,10.00
2018-10-02T18:28:02.921Z,10.00
2018-10-02T18:30:32.064Z,9.90
2018-10-02T18:33:00.241Z,9.90
2018-10-02T18:35:28.271Z,9.90
2018-10-02T18:37:56.364Z,9.90
2018-10-02T18:40:24.453Z,9.90
2018-10-02T18:42:52.642Z,9.90
2018-10-02T18:45:20.660Z,9.90
2018-10-02T18:47:48.764Z,9.90
2018-10-02T18:50:16.852Z,9.80
2018-10-02T18:52:44.989Z,9.80
2018-10-02T18:55:13.084Z,9.80
2018-10-02T18:57:41.194Z,9.80
2018-10-02T19:00:09.288Z,9.80
2018-10-02T19:02:37.428Z,9.80
2018-10-02T19:05:05.529Z,9.80
2018-10-02T19:07:33.623Z,9.70
2018-10-02T19:10:01.914Z,9.80
2018-10-02T19:12:29.948Z,9.70
2018-10-02T19:14:58.081Z,9.70
2018-10-02T19:17:26.217Z,9.70
2018-10-02T19:19:59.910Z,9.70
2018-10-02T19:22:28.022Z,9.70
2018-10-02T19:25:00.408Z,9.70
2018-10-02T19:27:28.465Z,9.60
2018-10-02T19:30:02.188Z,9.60
2018-10-02T19:32:31.359Z,9.70
2018-10-02T19:34:59.485Z,9.60
2018-10-02T19:37:33.015Z,9.60
2018-10-02T19:40:01.084Z,9.60
2018-10-02T19:42:29.184Z,9.60
2018-10-02T19:44:59.949Z,9.50
2018-10-02T19:47:28.151Z,9.50
2018-10-02T19:49:56.125Z,9.50
2018-10-02T19:52:24.238Z,9.50
2018-10-02T19:54:52.316Z,9.50
2018-10-02T19:57:20.409Z,9.40
2018-10-02T19:59:48.522Z,9.40
2018-10-02T20:02:16.621Z,9.30
2018-10-02T20:04:44.732Z,9.30
2018-10-02T20:07:12.927Z,9.30
2018-10-02T20:09:41.047Z,9.30
2018-10-02T20:12:09.120Z,9.30
2018-10-02T20:14:37.209Z,9.30
2018-10-02T20:17:05.314Z,9.40
2018-10-02T20:19:33.405Z,9.40
2018-10-02T20:22:01.513Z,9.40
2018-10-02T20:24:29.596Z,9.40
2018-10-02T20:26:57.685Z,9.40
2018-10-02T20:29:25.770Z,9.40
2018-10-02T20:31:53.875Z,9.30
2018-10-02T20:34:21.504Z,9.30
2018-10-02T20:36:49.723Z,9.30
2018-10-02T20:39:17.706Z,9.30
2018-10-02T20:41:46.856Z,9.30
2018-10-02T20:44:14.925Z,9.30
2018-10-02T20:46:43.013Z,9.40
2018-10-02T20:49:11.275Z,9.40
2018-10-02T20:51:39.325Z,9.40
2018-10-02T20:54:07.408Z,9.40
2018-10-02T20:56:35.508Z,9.40
2018-10-02T20:59:03.620Z,9.50
2018-10-02T21:01:31.716Z,9.40
2018-10-02T21:03:59.803Z,9.40
2018-10-02T21:06:27.920Z,9.40
2018-10-02T21:08:56.008Z,9.40
2018-10-02T21:11:24.630Z,9.40
2018-10-02T21:13:52.722Z,9.40
2018-10-02T21:16:20.836Z,9.30
2018-10-02T21:18:48.932Z,9.30
2018-10-02T21:21:17.041Z,9.30
2018-10-02T21:23:45.165Z,9.20
2018-10-02T21:26:13.267Z,9.20
2018-10-02T21:28:41.505Z,9.20
2018-10-02T21:31:09.657Z,9.20
2018-10-02T21:33:37.792Z,9.20
2018-10-02T21:36:05.926Z,9.20
2018-10-02T21:38:34.006Z,9.20
2018-10-02T21:41:02.119Z,9.20
2018-10-02T21:43:31.251Z,9.20
2018-10-02T21:45:59.346Z,9.10
2018-10-02T21:48:27.666Z,9.10
2018-10-02T21:53:23.651Z,8.90
2018-10-02T21:55:51.794Z,9.00
2018-10-02T21:58:19.954Z,9.10
2018-10-02T22:00:48.062Z,9.10
2018-10-02T22:03:16.180Z,9.10
2018-10-02T22:05:44.307Z,9.00
2018-10-02T22:08:12.440Z,8.90
2018-10-02T22:10:41.581Z,8.90
2018-10-02T22:13:10.216Z,8.90
2018-10-02T22:15:38.304Z,8.90
2018-10-02T22:18:06.523Z,8.90
2018-10-02T22:20:34.617Z,9.00
2018-10-02T22:23:02.700Z,9.10
2018-10-02T22:25:30.793Z,9.10
2018-10-02T22:27:58.888Z,9.20
2018-10-02T22:30:26.972Z,9.20
2018-10-02T22:32:55.100Z,9.30
2018-10-02T22:35:23.234Z,9.40
2018-10-02T22:37:51.353Z,9.30
2018-10-02T22:40:19.465Z,9.20
2018-10-02T22:42:47.569Z,9.20
2018-10-02T23:52:16.930Z,9.30
2018-10-02T23:54:45.353Z,9.30
2018-10-02T23:57:13.982Z,9.40
2018-10-02T23:59:42.463Z,9.40
